Time;durP1;ratioP1;P1;durP2;ratioP2;P2;SDS_P1;SDS_P2;PMS_P1;PMS_P2;Temp;Humidity;BMP_temperature;BMP_pressure;BME280_temperature;BME280_humidity;BME280_pressure;Samples;Min_cycle;Max_cycle;Signal;HPM_P1;HPM_P2
2022/07/13 00:01:34;;;;;;;1.30;1.17;;;;;;;20.43;45.92;94125.63;6121537;23;20017;-91
2022/07/13 00:04:00;;;;;;;1.10;1.00;;;;;;;20.43;45.92;94131.09;6144480;23;20014;-92
2022/07/13 00:06:25;;;;;;;1.13;1.00;;;;;;;20.43;45.93;94125.63;6097878;23;20017;-91
2022/07/13 00:08:51;;;;;;;1.45;1.23;;;;;;;20.44;45.96;94129.84;6093559;23;20053;-92
2022/07/13 00:11:16;;;;;;;1.38;1.10;;;;;;;20.46;45.96;94127.34;6145810;23;20357;-90
2022/07/13 00:13:41;;;;;;;1.50;1.40;;;;;;;20.43;46.12;94128.34;6145186;23;20010;-91
2022/07/13 00:16:07;;;;;;;1.30;1.20;;;;;;;20.44;45.91;94120.88;6122078;23;20024;-92
2022/07/13 00:18:32;;;;;;;1.10;1.00;;;;;;;20.43;45.87;94120.13;6119382;23;20344;-90
2022/07/13 00:20:58;;;;;;;1.50;1.35;;;;;;;20.42;46.08;94129.59;6126664;23;20017;-92
2022/07/13 00:23:24;;;;;;;2.47;1.40;;;;;;;20.42;46.08;94121.38;6102467;23;20036;-92
2022/07/13 00:25:49;;;;;;;2.20;1.33;;;;;;;20.43;46.23;94117.38;6145892;23;20013;-92
2022/07/13 00:28:15;;;;;;;1.30;1.20;;;;;;;20.42;46.25;94120.63;6120602;23;20013;-93
2022/07/13 00:30:40;;;;;;;1.20;1.00;;;;;;;20.43;46.05;94119.38;6120736;23;20140;-91
2022/07/13 00:33:07;;;;;;;1.30;1.00;;;;;;;20.41;46.01;94119.88;6143824;23;20450;-90
2022/07/13 00:35:32;;;;;;;1.10;1.00;;;;;;;20.42;46.12;94118.63;6072627;23;20142;-92
2022/07/13 00:37:58;;;;;;;1.10;1.00;;;;;;;20.43;46.34;94116.63;6042765;23;20941;-90
2022/07/13 00:40:23;;;;;;;1.38;1.27;;;;;;;20.43;46.16;94114.63;6006769;23;20443;-92
2022/07/13 00:42:48;;;;;;;1.20;1.00;;;;;;;20.41;46.08;94108.88;6009164;23;20085;-90
2022/07/13 00:45:14;;;;;;;1.35;1.25;;;;;;;20.41;46.11;94117.13;6010406;23;20359;-92
2022/07/13 00:47:41;;;;;;;1.30;1.20;;;;;;;20.41;46.19;94116.38;6035789;23;20018;-92
2022/07/13 00:50:07;;;;;;;1.10;1.00;;;;;;;20.41;46.17;94106.16;6028909;23;20299;-92
2022/07/13 00:52:35;;;;;;;1.48;1.38;;;;;;;20.40;46.20;94114.88;6007876;23;20018;-90
2022/07/13 00:55:00;;;;;;;1.20;1.10;;;;;;;20.42;46.30;94115.13;6030396;23;20030;-90
2022/07/13 00:57:26;;;;;;;1.65;1.20;;;;;;;20.40;46.00;94104.66;6007029;23;20023;-91
2022/07/13 00:59:51;;;;;;;1.75;1.10;;;;;;;20.42;46.14;94102.16;6007802;23;20045;-93
2022/07/13 01:02:17;;;;;;;1.55;1.30;;;;;;;20.42;46.04;94117.88;6029819;23;20078;-90
2022/07/13 01:04:43;;;;;;;1.27;1.17;;;;;;;20.40;46.08;94109.41;6031387;23;20026;-91
2022/07/13 01:07:09;;;;;;;1.25;1.00;;;;;;;20.40;46.12;94107.41;6027899;23;20153;-90
2022/07/13 01:09:34;;;;;;;1.20;1.10;;;;;;;20.40;46.02;94110.16;6035419;23;20027;-92
2022/07/13 01:12:00;;;;;;;1.38;1.27;;;;;;;20.42;45.96;94106.91;6035740;23;20025;-91
2022/07/13 01:14:25;;;;;;;1.25;1.15;;;;;;;20.40;46.05;94106.66;6035674;23;20026;-92
2022/07/13 01:16:51;;;;;;;1.52;1.02;;;;;;;20.39;46.35;94102.41;6040843;23;20370;-93
2022/07/13 01:19:16;;;;;;;1.20;1.10;;;;;;;20.40;46.29;94101.16;6090376;23;20017;-91
2022/07/13 01:21:44;;;;;;;1.38;0.93;;;;;;;20.38;46.03;94098.91;6090220;23;20025;-92
2022/07/13 01:24:09;;;;;;;1.00;0.90;;;;;;;20.42;46.11;94115.88;6113172;23;20113;-92
2022/07/13 01:26:35;;;;;;;1.52;1.27;;;;;;;20.39;45.81;94105.91;6089709;23;20442;-92
2022/07/13 01:29:01;;;;;;;1.23;0.90;;;;;;;20.40;46.27;94106.66;6091100;23;20079;-92
2022/07/13 01:31:38;;;;;;;1.10;1.00;;;;;;;20.39;46.00;94097.66;6114574;23;20029;-91
2022/07/13 01:34:04;;;;;;;1.95;1.50;;;;;;;20.38;46.17;94109.91;6113717;23;20100;-90
2022/07/13 01:36:30;;;;;;;1.15;1.00;;;;;;;20.39;45.93;94105.91;6139189;23;20024;-91
2022/07/13 01:38:56;;;;;;;1.55;1.30;;;;;;;20.38;46.10;94100.91;6090104;23;20022;-90
2022/07/13 01:41:22;;;;;;;1.13;1.02;;;;;;;20.40;45.92;94112.16;6089892;23;20026;-91
2022/07/13 01:43:47;;;;;;;1.27;1.10;;;;;;;20.39;46.23;94105.16;6089829;23;20021;-92
2022/07/13 01:46:14;;;;;;;1.50;1.10;;;;;;;20.39;46.26;94108.66;6139095;23;20449;-91
2022/07/13 01:48:39;;;;;;;2.10;1.02;;;;;;;20.38;46.34;94103.66;6090277;23;20140;-90
2022/07/13 01:51:05;;;;;;;1.20;1.00;;;;;;;20.37;46.42;94108.41;6089173;23;20014;-92
2022/07/13 01:53:30;;;;;;;0.90;0.82;;;;;;;20.38;46.03;94107.16;6088923;23;20531;-91
2022/07/13 01:55:56;;;;;;;1.15;0.90;;;;;;;20.38;45.83;94101.66;6140398;23;20052;-91
2022/07/13 01:58:21;;;;;;;1.73;1.13;;;;;;;20.40;45.97;94103.91;6069518;23;20256;-91
2022/07/13 02:00:47;;;;;;;1.55;0.93;;;;;;;20.38;46.05;94098.16;6042858;23;20520;-91
2022/07/13 02:03:12;;;;;;;1.35;1.00;;;;;;;20.38;46.22;94100.91;6091481;23;20567;-90
2022/07/13 02:05:38;;;;;;;1.10;1.00;;;;;;;20.37;46.30;94091.19;6095356;23;20096;-91
2022/07/13 02:08:04;;;;;;;0.90;0.90;;;;;;;20.39;46.00;94094.16;6048325;23;20021;-91
2022/07/13 02:10:35;;;;;;;0.80;0.77;;;;;;;20.37;46.29;94097.44;6068786;23;20541;-91
2022/07/13 02:13:08;;;;;;;0.73;0.73;;;;;;;20.37;46.16;94083.69;6097144;23;20014;-92
2022/07/13 02:15:34;;;;;;;1.45;0.85;;;;;;;20.39;46.19;94094.16;6070832;23;20113;-90
2022/07/13 02:18:00;;;;;;;0.82;0.82;;;;;;;20.38;46.23;94087.19;6094588;23;20045;-93
2022/07/13 02:20:26;;;;;;;1.17;1.05;;;;;;;20.37;45.95;94085.69;6093907;23;20018;-91
2022/07/13 02:22:52;;;;;;;1.00;0.90;;;;;;;20.34;45.93;94073.72;6061406;23;20014;-91
2022/07/13 02:25:17;;;;;;;0.90;0.80;;;;;;;20.36;46.33;94086.91;6069057;23;20442;-91
2022/07/13 02:27:43;;;;;;;1.40;1.00;;;;;;;20.37;46.27;94083.69;6027277;23;20023;-90
2022/07/13 02:30:10;;;;;;;0.85;0.85;;;;;;;20.36;46.39;94082.16;6014552;23;20026;-91
2022/07/13 02:32:36;;;;;;;1.63;0.95;;;;;;;20.39;46.15;94088.69;6015215;23;20354;-91
2022/07/13 02:35:02;;;;;;;0.85;0.80;;;;;;;20.36;45.91;94090.41;6013620;23;20470;-90
2022/07/13 02:37:27;;;;;;;0.95;0.85;;;;;;;20.36;46.14;94086.91;6013079;23;20054;-90
2022/07/13 02:39:55;;;;;;;1.33;1.23;;;;;;;20.35;46.10;94099.91;5987582;23;20426;-91
2022/07/13 02:42:21;;;;;;;0.77;0.70;;;;;;;20.39;45.93;94096.91;5987120;23;20233;-93
2022/07/13 02:44:47;;;;;;;1.17;1.08;;;;;;;20.36;46.44;94100.66;5985816;23;20085;-90
2022/07/13 02:47:12;;;;;;;1.35;1.00;;;;;;;20.34;46.13;94092.94;5985853;23;20426;-91
2022/07/13 02:49:38;;;;;;;1.15;0.90;;;;;;;20.35;46.69;94094.41;6003773;23;20210;-90
2022/07/13 02:52:03;;;;;;;1.55;1.13;;;;;;;20.36;46.10;94086.91;5972067;23;20030;-91
2022/07/13 02:54:29;;;;;;;0.90;0.90;;;;;;;20.37;46.09;94086.44;5967403;23;20023;-92
2022/07/13 02:56:57;;;;;;;1.08;0.93;;;;;;;20.36;45.76;94087.66;5958344;23;20026;-90
2022/07/13 02:59:23;;;;;;;1.08;0.90;;;;;;;20.35;46.10;94088.19;6007669;23;20387;-91
2022/07/13 03:01:48;;;;;;;1.08;0.80;;;;;;;20.34;46.29;94097.69;6045200;23;20022;-90
2022/07/13 03:04:14;;;;;;;1.27;0.93;;;;;;;20.34;46.56;94094.94;6037636;23;20026;-91
2022/07/13 03:06:39;;;;;;;1.40;1.10;;;;;;;20.35;46.00;94101.94;6015493;23;20529;-91
2022/07/13 03:09:04;;;;;;;1.00;0.90;;;;;;;20.35;46.13;94097.16;6038860;23;20161;-92
2022/07/13 03:11:31;;;;;;;1.40;0.90;;;;;;;20.37;45.97;94093.94;6014571;23;20022;-91
2022/07/13 03:13:56;;;;;;;1.20;0.98;;;;;;;20.35;46.23;94090.94;6013536;23;20020;-91
2022/07/13 03:16:22;;;;;;;0.93;0.80;;;;;;;20.33;46.29;94085.97;6039142;23;20030;-90
2022/07/13 03:18:47;;;;;;;1.02;0.93;;;;;;;20.35;46.12;94083.41;6013135;23;20022;-90
2022/07/13 03:21:13;;;;;;;1.10;1.00;;;;;;;20.35;46.00;94086.16;6034907;23;20026;-91
2022/07/13 03:23:38;;;;;;;1.35;1.00;;;;;;;20.35;45.95;94083.41;6009519;23;20018;-91
2022/07/13 03:26:04;;;;;;;1.08;0.90;;;;;;;20.33;46.11;94083.22;5986228;23;20023;-90
2022/07/13 03:28:29;;;;;;;1.10;1.00;;;;;;;20.34;45.98;94084.72;5987798;23;20064;-91
2022/07/13 03:30:54;;;;;;;0.80;0.80;;;;;;;20.36;45.90;94092.41;6013753;23;20018;-90
2022/07/13 03:33:20;;;;;;;2.20;1.00;;;;;;;20.36;45.84;94082.16;6012398;23;20018;-89
2022/07/13 03:35:48;;;;;;;1.35;1.00;;;;;;;20.35;46.16;94079.97;6036010;23;20046;-91
2022/07/13 03:38:15;;;;;;;1.83;1.00;;;;;;;20.35;46.12;94074.47;6011707;23;20161;-92
2022/07/13 03:40:40;;;;;;;1.20;1.10;;;;;;;20.35;46.05;94082.72;6181642;23;20475;-90
2022/07/13 03:43:06;;;;;;;3.03;0.98;;;;;;;20.34;46.37;94081.97;6165418;22;20025;-91
2022/07/13 03:45:31;;;;;;;3.60;1.05;;;;;;;20.39;46.08;94080.44;6165575;23;20330;-88
2022/07/13 03:47:57;;;;;;;8.30;1.35;;;;;;;20.38;46.17;94087.19;6119095;23;20024;-89
2022/07/13 03:50:23;;;;;;;5.45;1.30;;;;;;;20.39;45.80;94089.44;6111463;23;20032;-90
2022/07/13 03:52:48;;;;;;;4.10;1.30;;;;;;;20.47;46.31;94095.88;6122036;23;20024;-89
2022/07/13 03:55:14;;;;;;;1.88;1.25;;;;;;;20.43;45.93;94094.66;6083516;23;20032;-91
2022/07/13 03:57:44;;;;;;;1.15;0.82;;;;;;;20.46;45.87;94096.41;6117493;23;20017;-90
2022/07/13 04:00:21;;;;;;;4.07;1.38;;;;;;;20.47;45.78;94100.63;6094292;23;20028;-90
2022/07/13 04:02:47;;;;;;;2.85;2.00;;;;;;;20.46;44.84;94102.63;6096013;23;20032;-91
2022/07/13 04:05:21;;;;;;;15.77;2.72;;;;;;;20.33;44.78;94099.69;6082101;23;20377;-93
2022/07/13 04:07:50;;;;;;;11.85;3.40;;;;;;;20.31;44.41;94104.94;6115616;23;20021;-91
2022/07/13 04:10:21;;;;;;;17.35;10.07;;;;;;;19.88;44.63;94103.84;6144362;23;20490;-91
2022/07/13 04:13:06;;;;;;;4.20;3.42;;;;;;;19.75;44.81;94101.63;6150510;23;20032;-91
2022/07/13 04:15:40;;;;;;;5.75;2.85;;;;;;;19.58;45.54;94109.91;6160306;23;20014;-91
2022/07/13 04:18:09;;;;;;;5.95;3.80;;;;;;;19.65;45.52;94105.91;6184709;23;20044;-92
2022/07/13 04:20:36;;;;;;;14.35;6.20;;;;;;;19.47;45.70;94102.44;6170300;23;20021;-92
2022/07/13 04:23:06;;;;;;;7.93;5.25;;;;;;;19.59;45.94;94105.91;6139215;23;20033;-94
2022/07/13 04:25:33;;;;;;;49.65;44.35;;;;;;;19.49;46.35;94099.16;6149690;23;20460;-91
2022/07/13 04:28:04;;;;;;;102.30;55.55;;;;;;;19.54;46.51;94101.19;6107325;23;20021;-93
2022/07/13 04:30:30;;;;;;;19.85;11.48;;;;;;;19.60;46.89;94093.69;6102743;23;20116;-93
2022/07/13 04:33:00;;;;;;;84.60;50.92;;;;;;;19.57;47.57;94088.47;6113363;23;20179;-91
2022/07/13 04:35:26;;;;;;;30.35;15.93;;;;;;;19.52;48.32;94082.47;6136112;23;20017;-88
2022/07/13 04:37:55;;;;;;;20.58;10.30;;;;;;;19.41;48.19;94070.78;6133037;23;20028;-91
2022/07/13 04:40:26;;;;;;;28.23;20.05;;;;;;;19.51;48.30;94069.28;6106296;23;20084;-92
2022/07/13 04:43:21;;;;;;;7.20;6.07;;;;;;;19.46;49.15;94061.78;6110160;23;20045;-93
2022/07/13 04:48:12;;;;;;;9.45;4.47;;;;;;;19.28;50.08;94076.75;6153340;23;20026;-91
2022/07/13 04:51:07;;;;;;;8.10;4.25;;;;;;;19.42;49.46;94066.78;6127993;23;20106;-92
2022/07/13 04:53:45;;;;;;;15.32;6.22;;;;;;;19.45;49.45;94063.03;6037610;23;20022;-93
2022/07/13 04:56:11;;;;;;;21.85;12.35;;;;;;;19.29;50.33;94078.25;6003190;23;20033;-92
2022/07/13 05:14:05;;;;;;;15.13;7.68;;;;;;;19.36;48.35;94074.25;5103644;27;20392;-91
2022/07/13 05:16:31;;;;;;;59.85;24.27;;;;;;;19.41;48.56;94068.03;5082728;28;20047;-91
2022/07/13 05:18:57;;;;;;;33.13;11.30;;;;;;;19.37;49.10;94087.47;5095880;27;20480;-89
2022/07/13 05:21:55;;;;;;;18.67;10.63;;;;;;;19.49;49.30;94079.97;5091403;27;20077;-91
2022/07/13 05:24:20;;;;;;;26.10;13.48;;;;;;;19.52;49.24;94077.00;5096250;27;20039;-90
2022/07/13 05:26:47;;;;;;;50.30;34.63;;;;;;;19.58;49.18;94079.00;5054259;28;20035;-91
2022/07/13 05:29:13;;;;;;;46.53;27.40;;;;;;;19.70;48.80;94077.72;5100531;27;20035;-88
2022/07/13 05:31:39;;;;;;;38.40;19.85;;;;;;;19.67;49.02;94084.97;5081789;28;20036;-89
2022/07/13 05:34:05;;;;;;;49.17;30.60;;;;;;;19.76;48.99;94070.22;5087464;27;20048;-86
2022/07/13 05:36:31;;;;;;;93.15;59.05;;;;;;;19.82;48.86;94071.69;5099556;27;20063;-88
2022/07/13 05:38:57;;;;;;;83.63;55.70;;;;;;;19.89;48.48;94061.44;5087921;28;20050;-92
2022/07/13 05:41:22;;;;;;;77.28;44.90;;;;;;;19.94;48.59;94069.63;5059138;27;20470;-89
2022/07/13 05:43:48;;;;;;;91.03;62.05;;;;;;;19.94;48.63;94060.66;5050475;28;20042;-91
2022/07/13 05:46:13;;;;;;;108.63;67.28;;;;;;;19.92;48.65;94065.94;5086391;27;20095;-88
2022/07/13 05:48:39;;;;;;;85.40;60.17;;;;;;;20.03;48.06;94066.63;5099995;28;20055;-92
2022/07/13 05:51:04;;;;;;;69.47;47.38;;;;;;;20.00;48.30;94058.66;5080446;28;20040;-90
2022/07/13 05:53:30;;;;;;;69.38;40.80;;;;;;;20.00;48.16;94072.38;5104501;28;20297;-89
2022/07/13 05:55:55;;;;;;;64.13;36.00;;;;;;;20.11;47.73;94069.59;5080410;28;20131;-91
2022/07/13 05:58:21;;;;;;;47.85;29.75;;;;;;;20.06;47.29;94070.34;5035492;28;20047;-89
2022/07/13 06:00:46;;;;;;;65.47;45.60;;;;;;;20.11;47.17;94066.84;5062277;28;20042;-90
2022/07/13 06:03:12;;;;;;;46.97;34.35;;;;;;;20.11;47.27;94064.09;5067671;28;20038;-92
2022/07/13 06:05:37;;;;;;;32.72;23.55;;;;;;;20.03;46.84;94068.63;5042175;28;20796;-91
2022/07/13 06:08:03;;;;;;;26.98;20.17;;;;;;;20.02;46.74;94065.13;5009551;28;20048;-89
2022/07/13 06:10:30;;;;;;;20.52;15.05;;;;;;;19.99;46.95;94062.63;5014441;28;20048;-88
2022/07/13 06:13:01;;;;;;;18.67;12.48;;;;;;;20.04;46.96;94057.13;5035950;28;20092;-92
2022/07/13 06:15:26;;;;;;;13.82;10.38;;;;;;;20.08;47.28;94059.63;5048742;28;20044;-91
2022/07/13 06:17:53;;;;;;;13.05;9.02;;;;;;;20.12;46.62;94052.63;5013833;28;20044;-91
2022/07/13 06:20:18;;;;;;;10.90;8.65;;;;;;;20.17;46.63;94046.34;5033639;28;20583;-92
2022/07/13 06:23:09;;;;;;;14.65;11.95;;;;;;;20.26;46.23;94047.31;5006961;28;20047;-90
2022/07/13 06:25:29;;;;;;;15.52;12.52;;;;;;;20.19;46.49;94043.09;5039802;28;20073;-92
2022/07/13 06:27:55;;;;;;;10.75;8.98;;;;;;;20.22;46.42;94055.78;5012781;28;20052;-93
2022/07/13 06:30:27;;;;;;;12.23;7.63;;;;;;;20.31;46.21;94052.03;5037742;28;20040;-93
2022/07/13 06:32:55;;;;;;;29.05;21.48;;;;;;;20.26;46.17;94052.78;5070090;28;20069;-92
2022/07/13 06:35:20;;;;;;;60.15;42.90;;;;;;;20.23;46.79;94053.78;5066367;28;20048;-92
2022/07/13 06:37:47;;;;;;;56.03;45.53;;;;;;;20.11;46.94;94053.88;5078529;28;20075;-92
2022/07/13 06:40:12;;;;;;;54.60;37.35;;;;;;;20.14;46.92;94052.84;5032124;27;20044;-91
2022/07/13 06:42:38;;;;;;;40.28;28.50;;;;;;;20.12;46.88;94049.88;5101048;27;20043;-94
2022/07/13 06:45:04;;;;;;;29.17;21.33;;;;;;;20.18;46.67;94047.81;5048190;27;20144;-93
2022/07/13 06:47:29;;;;;;;28.73;17.60;;;;;;;20.17;46.88;94038.09;5042889;28;20044;-91
2022/07/13 06:49:55;;;;;;;29.30;16.45;;;;;;;20.24;47.02;94034.06;5043582;28;20040;-91
2022/07/13 06:52:20;;;;;;;31.65;14.65;;;;;;;20.20;47.34;94041.81;5073839;27;20050;-92
2022/07/13 06:54:48;;;;;;;27.23;11.75;;;;;;;20.22;47.09;94049.56;5055539;28;20035;-93
2022/07/13 06:57:15;;;;;;;17.02;9.73;;;;;;;20.26;46.92;94056.28;5051448;27;21613;-92
2022/07/13 06:59:42;;;;;;;12.77;6.82;;;;;;;20.19;46.76;94054.06;5058589;28;20184;-91
2022/07/13 07:02:08;;;;;;;14.10;6.63;;;;;;;20.24;46.74;94063.53;5058883;27;20048;-94
2022/07/13 07:04:34;;;;;;;11.00;5.45;;;;;;;20.22;47.25;94061.28;5051645;28;20078;-93
2022/07/13 07:07:01;;;;;;;7.18;4.00;;;;;;;20.26;47.18;94061.03;5083063;28;20039;-93
2022/07/13 07:09:30;;;;;;;16.98;8.73;;;;;;;20.20;46.88;94064.53;5057957;28;20039;-93
2022/07/13 07:11:57;;;;;;;44.95;30.08;;;;;;;20.16;47.42;94077.03;5103983;28;20044;-92
2022/07/13 07:14:23;;;;;;;40.42;29.83;;;;;;;20.21;47.46;94073.53;5103551;27;20044;-91
2022/07/13 07:17:34;;;;;;;50.95;36.55;;;;;;;20.29;47.59;94073.75;5080205;28;20051;-94
2022/07/13 07:20:04;;;;;;;64.65;45.53;;;;;;;20.25;47.53;94070.50;5097506;27;20101;-92
2022/07/13 07:22:30;;;;;;;86.20;63.35;;;;;;;20.24;47.18;94072.50;5098529;27;20108;-93
2022/07/13 07:24:58;;;;;;;85.97;62.72;;;;;;;20.33;47.08;94074.97;5086668;28;20055;-93
2022/07/13 07:33:07;;;;;;;49.80;36.20;;;;;;;20.32;47.66;94081.72;5180233;22;20117;-94
2022/07/13 07:35:52;;;;;;;35.17;24.33;;;;;;;20.42;48.11;94082.19;5033171;28;20380;-93
2022/07/13 07:38:33;;;;;;;22.55;16.90;;;;;;;20.35;48.04;94075.19;4956536;28;20146;-92
2022/07/13 07:41:31;;;;;;;20.58;11.73;;;;;;;20.43;47.58;94076.19;4944615;28;20098;-93
2022/07/13 07:43:59;;;;;;;14.15;8.02;;;;;;;20.38;48.37;94082.44;4953645;28;20049;-92
2022/07/13 07:47:09;;;;;;;;;;;;;;;;;;;;;
2022/07/13 07:49:39;;;;;;;7.50;5.55;;;;;;;20.42;47.84;94068.44;4950657;28;20383;-93
2022/07/13 07:52:29;;;;;;;7.78;4.47;;;;;;;20.38;47.86;94057.72;4979229;28;20046;-94
2022/07/13 07:57:58;;;;;;;5.63;3.63;;;;;;;20.38;47.36;94057.72;5128837;22;20310;-94
2022/07/13 08:01:07;;;;;;;8.77;7.60;;;;;;;20.40;47.37;94062.72;4970453;28;20057;-95
2022/07/13 08:03:43;;;;;;;3.45;2.70;;;;;;;20.41;47.18;94050.47;5175122;22;20106;-93
2022/07/13 08:06:08;;;;;;;5.10;2.00;;;;;;;20.42;47.48;94052.72;4966541;28;20073;-93
2022/07/13 08:08:44;;;;;;;2.90;2.03;;;;;;;20.38;47.73;94062.47;4952134;28;20054;-93
2022/07/13 08:11:54;;;;;;;2.63;2.08;;;;;;;20.40;48.21;94065.47;4976349;28;21132;-93
2022/07/13 08:14:21;;;;;;;5.32;2.38;;;;;;;20.47;47.89;94065.69;4960366;28;20655;-95
2022/07/13 08:16:47;;;;;;;4.28;2.20;;;;;;;20.52;48.58;94064.91;4933869;28;20050;-90
2022/07/13 08:19:18;;;;;;;7.20;2.38;;;;;;;20.52;48.63;94064.91;4985694;28;20061;-92
2022/07/13 08:21:51;;;;;;;3.10;2.17;;;;;;;20.55;48.23;94062.41;4962348;28;20042;-95
2022/07/13 08:24:17;;;;;;;2.42;1.92;;;;;;;20.52;48.70;94078.63;4954201;28;20041;-92
2022/07/13 08:26:42;;;;;;;4.60;2.10;;;;;;;20.55;48.47;94081.63;4962056;28;20108;-91
2022/07/13 08:29:08;;;;;;;3.63;1.67;;;;;;;20.50;48.02;94077.66;4917017;28;20154;-89
2022/07/13 08:31:34;;;;;;;10.88;6.18;;;;;;;20.49;47.43;94074.16;4930212;28;20042;-91
2022/07/13 08:40:21;;;;;;;5.65;3.80;;;;;;;20.51;48.22;94087.38;4977785;28;20552;-90
2022/07/13 08:42:50;;;;;;;7.97;3.33;;;;;;;20.52;48.13;94088.88;4981820;28;20050;-92
2022/07/13 08:45:34;;;;;;;7.43;3.30;;;;;;;20.53;48.43;94096.59;4965425;28;20046;-90
2022/07/13 08:48:00;;;;;;;4.53;3.20;;;;;;;20.52;48.57;94094.38;4959643;28;20069;-90
2022/07/13 08:50:25;;;;;;;7.88;4.47;;;;;;;20.54;48.79;94083.63;4951406;28;20061;-92
2022/07/13 08:52:55;;;;;;;20.67;10.52;;;;;;;20.53;49.44;94084.88;4928912;28;21046;-92
2022/07/13 08:55:31;;;;;;;15.02;8.05;;;;;;;20.50;49.34;94089.38;4893988;29;20047;-92
2022/07/13 08:57:57;;;;;;;15.73;7.13;;;;;;;20.52;49.71;94088.88;4868732;29;20083;-90
2022/07/13 09:00:24;;;;;;;14.35;6.45;;;;;;;20.57;49.17;94090.09;4889254;29;20048;-92
2022/07/13 09:02:50;;;;;;;14.85;8.88;;;;;;;20.47;49.48;94087.66;4925397;28;20047;-92
2022/07/13 09:05:15;;;;;;;19.92;9.57;;;;;;;20.49;49.80;94090.63;4912272;28;20170;-93
2022/07/13 09:07:43;;;;;;;23.23;10.38;;;;;;;20.55;49.78;94092.59;4887754;29;21459;-91
2022/07/13 09:10:09;;;;;;;18.15;10.20;;;;;;;20.63;49.45;94093.53;4908678;28;20049;-91
2022/07/13 09:12:35;;;;;;;13.73;6.03;;;;;;;20.53;49.79;94093.88;4866134;29;20040;-89
2022/07/13 09:15:06;;;;;;;7.18;4.22;;;;;;;20.56;49.18;94094.84;4881947;29;20065;-91
2022/07/13 09:17:35;;;;;;;10.25;3.22;;;;;;;20.54;49.23;94100.09;4863718;29;20078;-91
2022/07/13 09:20:10;;;;;;;5.00;3.17;;;;;;;20.56;49.38;94099.59;4893352;29;20056;-89
2022/07/13 09:22:55;;;;;;;3.80;2.50;;;;;;;20.63;49.26;94094.28;4890040;29;20044;-92
2022/07/13 09:25:30;;;;;;;5.32;2.42;;;;;;;20.66;49.03;94093.28;4851367;29;20076;-92
2022/07/13 09:28:03;;;;;;;2.10;1.90;;;;;;;20.64;49.34;94084.78;4856731;29;20048;-95
2022/07/13 09:30:30;;;;;;;2.33;2.00;;;;;;;20.67;48.87;94085.78;4873523;29;20058;-92
2022/07/13 09:32:59;;;;;;;2.20;2.00;;;;;;;20.71;49.17;94092.50;4861652;29;20110;-92
2022/07/13 09:36:00;;;;;;;6.72;3.55;;;;;;;20.72;49.23;94094.00;4850797;29;20975;-92
2022/07/13 09:38:34;;;;;;;11.63;7.57;;;;;;;20.71;49.26;94100.75;4873958;29;20048;-92
2022/07/13 09:41:21;;;;;;;14.50;7.57;;;;;;;20.73;49.24;94095.50;4861909;29;20138;-91
2022/07/13 09:46:51;;;;;;;10.70;4.78;;;;;;;20.78;48.90;94094.72;4862719;29;20225;-91
2022/07/13 09:49:17;;;;;;;6.38;3.30;;;;;;;20.81;48.56;94085.41;4826477;29;20059;-94
2022/07/13 09:51:53;;;;;;;4.68;2.47;;;;;;;20.84;47.96;94081.66;4864228;29;20045;-92
2022/07/13 09:54:19;;;;;;;18.33;9.45;;;;;;;20.84;48.32;94084.41;4834068;29;20046;-92
2022/07/13 09:56:51;;;;;;;20.77;11.27;;;;;;;20.87;48.35;94082.63;4887470;29;20048;-91
2022/07/13 09:59:17;;;;;;;16.45;9.05;;;;;;;20.95;48.06;94086.34;4850646;29;20072;-91
2022/07/13 10:01:45;;;;;;;22.65;9.02;;;;;;;20.91;47.74;94074.88;4872875;29;20088;-91
2022/07/13 10:04:29;;;;;;;8.13;4.97;;;;;;;20.98;47.93;94079.81;4843517;29;20800;-93
2022/07/13 10:06:55;;;;;;;12.05;4.05;;;;;;;21.00;47.76;94071.78;4846672;29;20048;-92
2022/07/13 10:09:26;;;;;;;7.82;4.25;;;;;;;20.98;47.46;94079.81;4879316;29;20048;-92
2022/07/13 10:11:51;;;;;;;6.18;3.03;;;;;;;21.00;47.73;94079.31;4859480;29;20041;-93
2022/07/13 10:14:18;;;;;;;3.15;2.05;;;;;;;21.06;47.37;94085.50;4856043;29;20048;-91
2022/07/13 10:16:52;;;;;;;2.50;2.08;;;;;;;21.05;47.11;94062.75;4849142;29;20056;-94
2022/07/13 10:22:03;;;;;;;4.13;2.15;;;;;;;21.07;47.42;94084.25;5080216;23;20053;-91
2022/07/13 10:24:32;;;;;;;4.03;1.88;;;;;;;21.07;47.59;94082.22;4950458;28;20073;-94
2022/07/13 10:27:28;;;;;;;54.88;40.33;;;;;;;21.08;47.65;94075.47;4968798;28;20137;-92
2022/07/13 10:29:54;;;;;;;29.85;24.15;;;;;;;21.12;47.71;94061.47;4950262;28;20049;-92
2022/07/13 10:32:21;;;;;;;8.57;3.80;;;;;;;21.12;47.71;94070.44;4944730;28;20046;-91
2022/07/13 10:34:51;;;;;;;2.90;2.47;;;;;;;21.14;47.46;94075.44;4939123;28;20037;-92
2022/07/13 10:37:17;;;;;;;11.43;7.80;;;;;;;21.14;47.26;94078.19;4962693;28;20049;-90
2022/07/13 10:40:14;;;;;;;6.43;3.45;;;;;;;21.17;46.86;94085.41;4932330;28;20420;-91
2022/07/13 10:43:06;;;;;;;4.78;3.30;;;;;;;21.15;46.69;94080.44;4948350;28;20057;-91
2022/07/13 10:45:38;;;;;;;4.35;2.40;;;;;;;21.18;46.64;94082.16;4956343;28;20076;-90
2022/07/13 10:48:21;;;;;;;7.90;3.15;;;;;;;21.19;47.07;94077.41;4971202;28;20102;-91
2022/07/13 10:50:52;;;;;;;4.45;3.10;;;;;;;21.15;46.81;94074.94;5022672;28;20046;-92
2022/07/13 10:53:19;;;;;;;4.15;3.45;;;;;;;21.18;46.78;94078.66;4950079;28;20057;-92
2022/07/13 10:55:48;;;;;;;3.30;3.03;;;;;;;21.13;46.73;94076.69;4958379;28;20917;-92
2022/07/13 10:58:31;;;;;;;6.28;4.43;;;;;;;21.11;46.90;94063.47;4921965;28;20042;-92
2022/07/13 11:00:59;;;;;;;29.80;14.13;;;;;;;21.15;47.12;94065.94;4958334;28;20053;-92
2022/07/13 11:03:44;;;;;;;106.75;26.85;;;;;;;21.12;46.80;94070.44;4935176;28;20041;-93
2022/07/13 11:06:13;;;;;;;114.32;30.80;;;;;;;21.11;47.10;94066.22;4932020;28;20034;-91
2022/07/13 11:08:39;;;;;;;141.90;37.72;;;;;;;21.18;46.99;94059.41;4949041;28;20038;-90
2022/07/13 11:11:14;;;;;;;94.95;41.25;;;;;;;21.14;47.07;94056.19;4927634;28;20053;-91
2022/07/13 11:13:41;;;;;;;103.97;41.13;;;;;;;21.17;47.25;94055.91;4935656;28;20176;-91
2022/07/13 11:16:07;;;;;;;105.60;42.38;;;;;;;21.20;47.04;94052.19;4944672;28;20034;-93
2022/07/13 11:18:43;;;;;;;98.25;37.85;;;;;;;21.17;47.23;94057.91;4917725;28;20188;-92
2022/07/13 11:21:17;;;;;;;85.65;36.70;;;;;;;21.17;47.00;94044.91;4951508;28;20065;-91
2022/07/13 11:26:48;;;;;;;97.93;37.35;;;;;;;21.19;47.42;94044.41;4974769;28;20072;-92
2022/07/13 11:29:32;;;;;;;119.70;43.35;;;;;;;21.18;47.18;94038.16;4966559;28;20057;-90
2022/07/13 11:31:59;;;;;;;101.55;41.78;;;;;;;21.17;47.31;94041.44;4966513;28;20420;-90
2022/07/13 11:34:28;;;;;;;93.28;38.13;;;;;;;21.19;47.47;94045.16;4929688;28;20049;-91
2022/07/13 11:36:58;;;;;;;99.30;41.67;;;;;;;21.19;47.43;94047.16;4960941;28;20058;-90
2022/07/13 11:39:24;;;;;;;97.18;38.47;;;;;;;21.18;47.35;94042.91;4957927;28;20046;-91
2022/07/13 11:41:53;;;;;;;89.90;37.72;;;;;;;21.19;47.41;94034.16;4945249;28;20097;-89
2022/07/13 11:44:24;;;;;;;84.82;34.95;;;;;;;21.23;47.18;94035.88;4905938;28;20211;-91
2022/07/13 11:46:50;;;;;;;80.80;37.50;;;;;;;21.17;47.22;94028.44;4939173;28;20054;-88
2022/07/13 11:50:04;;;;;;;93.72;38.83;;;;;;;21.17;47.42;94017.44;4913852;28;20094;-93
2022/07/13 11:52:41;;;;;;;81.47;35.15;;;;;;;21.28;47.15;94029.59;5139209;23;20042;-91
2022/07/13 11:55:15;;;;;;;95.22;40.03;;;;;;;21.28;47.44;94035.09;4947770;28;20153;-93
2022/07/13 11:57:45;;;;;;;115.28;50.10;;;;;;;21.29;47.23;94023.59;4959670;28;20065;-91
2022/07/13 12:00:26;;;;;;;148.05;65.85;;;;;;;21.28;47.40;94019.34;4992738;28;20037;-91
2022/07/13 12:02:51;;;;;;;159.48;65.53;;;;;;;21.28;47.28;94021.34;4968340;28;20046;-93
2022/07/13 12:05:51;;;;;;;133.68;57.78;;;;;;;21.19;47.59;94027.91;4987089;28;20106;-93
2022/07/13 12:08:16;;;;;;;115.88;50.47;;;;;;;21.28;47.62;94024.09;4980686;28;20072;-92
2022/07/13 12:10:47;;;;;;;120.28;50.15;;;;;;;21.29;47.55;94029.06;4982664;28;20037;-93
2022/07/13 12:13:29;;;;;;;136.30;55.97;;;;;;;;;;4956510;28;20445;-94
2022/07/13 12:15:55;;;;;;;125.38;62.88;;;;;;;21.29;47.72;94028.34;4970754;28;20063;-93
2022/07/13 12:18:21;;;;;;;117.65;52.22;;;;;;;21.28;47.66;94013.84;4956237;28;20050;-94
2022/07/13 12:20:50;;;;;;;130.85;50.70;;;;;;;21.28;47.54;94022.09;4953959;28;20733;-93
2022/07/13 12:25:48;;;;;;;130.05;59.25;;;;;;;21.31;47.75;94009.31;5168314;23;20061;-93